Time;durP1;ratioP1;P1;durP2;ratioP2;P2;SDS_P1;SDS_P2;PMS_P1;PMS_P2;Temp;Humidity;BMP_temperature;BMP_pressure;BME280_temperature;BME280_humidity;BME280_pressure;Samples;Min_cycle;Max_cycle;Signal;HPM_P1;HPM_P2
2021/08/04 00:02:25;;;;;;;;;8.25;6.75;;;;;16.51;67.83;101074.78;5068095;27;45319;-67
2021/08/04 00:04:50;;;;;;;;;7.00;6.75;;;;;16.48;67.85;101077.81;5068422;27;45573;-68
2021/08/04 00:07:16;;;;;;;;;13.50;8.25;;;;;16.45;67.89;101070.19;5067859;27;46435;-63
2021/08/04 00:09:43;;;;;;;;;8.00;8.00;;;;;16.41;67.93;101073.38;5071700;28;45571;-62
2021/08/04 00:12:09;;;;;;;;;10.75;7.50;;;;;16.35;68.36;101077.59;5068804;27;45790;-69
2021/08/04 00:14:34;;;;;;;;;8.75;7.00;;;;;16.29;68.16;101070.31;5062495;27;45616;-66
2021/08/04 00:17:00;;;;;;;;;8.75;7.75;;;;;16.27;68.44;101074.97;5069929;27;45546;-63
2021/08/04 00:19:25;;;;;;;;;8.25;7.50;;;;;16.23;68.47;101081.69;5067702;27;45429;-62
2021/08/04 00:21:50;;;;;;;;;7.75;7.25;;;;;16.22;68.49;101083.53;5071184;28;45427;-66
2021/08/04 00:24:16;;;;;;;;;10.25;7.00;;;;;16.21;68.05;101073.88;5069408;27;45536;-62
2021/08/04 00:26:42;;;;;;;;;8.00;7.25;;;;;16.20;69.16;101077.53;5069002;27;45590;-62
2021/08/04 00:29:07;;;;;;;;;10.00;7.25;;;;;16.18;68.63;101070.72;5068740;27;46504;-62
2021/08/04 00:31:32;;;;;;;;;8.25;7.00;;;;;16.16;68.34;101070.06;5067921;27;45468;-62
2021/08/04 00:33:58;;;;;;;;;8.25;6.25;;;;;16.13;68.34;101058.75;5070312;28;45485;-66
2021/08/04 00:36:23;;;;;;;;;12.00;10.25;;;;;16.12;68.29;101066.91;5069455;28;45550;-62
2021/08/04 00:38:49;;;;;;;;;12.50;9.00;;;;;16.10;68.62;101075.13;5067623;27;46514;-66
2021/08/04 00:41:14;;;;;;;;;9.25;8.25;;;;;16.08;69.06;101071.78;5067481;27;45637;-66
2021/08/04 00:43:39;;;;;;;;;10.75;6.75;;;;;16.06;69.00;101063.13;5066052;27;45550;-62
2021/08/04 00:46:05;;;;;;;;;8.50;7.25;;;;;16.07;68.76;101059.47;5066474;27;45643;-68
2021/08/04 00:48:30;;;;;;;;;11.25;8.00;;;;;16.04;68.97;101054.47;5071147;27;46499;-66
2021/08/04 00:50:56;;;;;;;;;8.75;7.25;;;;;16.03;68.56;101058.16;5068294;27;45528;-68
2021/08/04 00:53:21;;;;;;;;;10.50;9.50;;;;;16.03;68.96;101052.00;5068216;27;45575;-66
2021/08/04 00:55:47;;;;;;;;;9.00;8.00;;;;;16.01;68.85;101062.84;5067399;27;45496;-66
2021/08/04 00:58:13;;;;;;;;;11.25;9.00;;;;;15.96;69.33;101051.88;5066118;28;46735;-65
2021/08/04 01:00:42;;;;;;;;;12.50;9.50;;;;;15.94;69.58;101059.22;5069461;28;45496;-66
2021/08/04 01:03:08;;;;;;;;;8.75;8.00;;;;;15.92;69.72;101055.91;5068115;27;45467;-62
2021/08/04 01:05:44;;;;;;;;;8.00;8.00;;;;;15.91;69.80;101048.91;5066949;27;45824;-62
2021/08/04 01:08:16;;;;;;;;;10.75;8.00;;;;;15.89;69.89;101035.75;5066549;27;46288;-62
2021/08/04 01:10:51;;;;;;;;;10.75;10.75;;;;;15.86;69.33;101037.97;5067809;27;45540;-67
2021/08/04 01:13:26;;;;;;;;;9.25;9.25;;;;;15.84;69.95;101043.44;5060581;27;45511;-62
2021/08/04 01:16:06;;;;;;;;;8.75;8.00;;;;;15.83;69.48;101039.13;5067260;27;45663;-68
2021/08/04 01:18:57;;;;;;;;;11.25;9.00;;;;;15.81;69.87;101043.00;5069629;28;45449;-65
2021/08/04 01:21:31;;;;;;;;;11.50;10.25;;;;;15.80;69.63;101041.31;5069021;28;45531;-63
2021/08/04 01:24:06;;;;;;;;;10.00;8.00;;;;;15.77;70.30;101041.66;5067739;27;45550;-63
2021/08/04 01:26:44;;;;;;;;;11.00;8.75;;;;;15.75;70.10;101049.00;5066701;27;45738;-67
2021/08/04 01:29:14;;;;;;;;;10.75;9.25;;;;;15.71;70.30;101037.88;5068361;27;45457;-63
2021/08/04 01:31:43;;;;;;;;;10.50;8.00;;;;;15.69;70.90;101051.38;5099006;27;45576;-66
2021/08/04 01:34:08;;;;;;;;;12.75;9.50;;;;;15.67;71.48;101039.19;5064621;27;45686;-62
2021/08/04 01:36:35;;;;;;;;;8.25;8.00;;;;;15.66;70.52;101037.53;5072659;27;45394;-63
2021/08/04 01:39:02;;;;;;;;;9.50;7.50;;;;;15.62;71.47;101031.72;5070708;27;45494;-67
2021/08/04 01:41:30;;;;;;;;;10.00;9.00;;;;;15.62;71.00;101033.56;5070962;27;45682;-67
2021/08/04 01:43:56;;;;;;;;;8.25;8.25;;;;;15.60;70.85;101032.91;5070504;27;45594;-68
2021/08/04 01:46:23;;;;;;;;;9.00;9.00;;;;;15.58;70.98;101033.09;5069390;27;45559;-62
2021/08/04 01:48:49;;;;;;;;;10.00;9.00;;;;;15.56;70.83;101032.44;5071995;28;45477;-68
2021/08/04 01:51:16;;;;;;;;;9.50;8.75;;;;;15.53;71.44;101027.47;5071474;28;45535;-68
2021/08/04 01:53:44;;;;;;;;;7.25;7.00;;;;;15.52;71.22;101030.28;5073166;28;45420;-63
2021/08/04 01:56:11;;;;;;;;;11.25;9.25;;;;;15.47;70.82;101030.81;5069758;27;45619;-68
2021/08/04 01:58:38;;;;;;;;;6.00;6.00;;;;;15.41;71.06;101027.00;5072465;27;45894;-62
2021/08/04 02:01:04;;;;;;;;;8.25;8.25;;;;;15.37;71.09;101022.22;5071958;27;45426;-63
2021/08/04 02:03:29;;;;;;;;;9.50;8.25;;;;;15.33;71.87;101023.53;5071791;28;45361;-68
2021/08/04 02:05:55;;;;;;;;;10.25;8.75;;;;;15.32;72.05;101013.91;5069827;27;45523;-68
2021/08/04 02:08:24;;;;;;;;;8.50;7.00;;;;;15.32;71.55;101019.25;5069465;27;46331;-62
2021/08/04 02:11:15;;;;;;;;;9.75;8.75;;;;;15.28;71.23;101024.06;5070813;27;45566;-64
2021/08/04 02:13:50;;;;;;;;;11.50;8.00;;;;;15.23;71.97;101024.59;5065024;27;45576;-63
2021/08/04 02:16:18;;;;;;;;;11.00;7.50;;;;;15.16;71.93;101022.81;5069834;27;45415;-67
2021/08/04 02:18:48;;;;;;;;;9.00;7.00;;;;;15.08;71.62;101026.31;5071830;28;46362;-66
2021/08/04 02:21:19;;;;;;;;;9.00;8.00;;;;;15.05;71.75;101024.81;5070478;28;45504;-62
2021/08/04 02:23:47;;;;;;;;;8.25;7.00;;;;;15.04;71.79;101019.69;5068784;28;45552;-62
2021/08/04 02:26:16;;;;;;;;;8.50;6.00;;;;;15.03;71.78;101023.31;5069251;27;45523;-63
2021/08/04 02:28:45;;;;;;;;;9.00;9.00;;;;;15.01;71.64;101015.53;5071190;27;45571;-67
2021/08/04 02:31:14;;;;;;;;;8.50;7.50;;;;;15.00;71.62;101021.00;5068514;28;45477;-63
2021/08/04 02:33:40;;;;;;;;;9.50;8.25;;;;;15.00;71.68;101019.19;5072796;27;45437;-62
2021/08/04 02:36:05;;;;;;;;;9.25;7.25;;;;;14.99;71.46;101012.22;5069363;27;45439;-63
2021/08/04 02:38:32;;;;;;;;;7.00;6.25;;;;;14.97;71.51;101008.06;5070105;27;46153;-66
2021/08/04 02:40:58;;;;;;;;;7.00;6.50;;;;;14.93;71.50;101004.88;5069068;27;46014;-68
2021/08/04 02:43:24;;;;;;;;;9.00;7.75;;;;;14.90;72.47;100999.91;5069812;27;45432;-63
2021/08/04 02:45:51;;;;;;;;;8.25;7.00;;;;;14.87;72.02;101007.44;5071768;28;45606;-62
2021/08/04 02:48:18;;;;;;;;;8.25;7.25;;;;;14.80;72.09;101000.09;5070227;28;47861;-66
2021/08/04 02:50:47;;;;;;;;;10.50;8.00;;;;;14.79;72.19;101000.31;5069009;27;45612;-68
2021/08/04 02:53:17;;;;;;;;;9.50;8.00;;;;;14.75;72.24;100997.13;5069289;27;45531;-63
2021/08/04 02:55:43;;;;;;;;;10.00;8.00;;;;;14.70;72.46;100996.81;5070832;28;45443;-62
2021/08/04 02:58:12;;;;;;;;;7.25;7.25;;;;;14.66;72.22;100998.16;5068528;27;46824;-69
2021/08/04 03:00:38;;;;;;;;;8.75;6.75;;;;;14.63;72.67;100996.66;5072539;27;45356;-62
2021/08/04 03:03:04;;;;;;;;;10.75;7.00;;;;;14.61;73.14;100992.50;5069794;27;45455;-66
2021/08/04 03:05:29;;;;;;;;;9.00;8.50;;;;;14.56;73.03;100989.53;5066321;27;45738;-66
2021/08/04 03:07:54;;;;;;;;;8.75;8.75;;;;;14.50;73.09;100991.00;5069434;27;45557;-69
2021/08/04 03:10:20;;;;;;;;;7.50;6.75;;;;;14.50;72.93;100993.66;5069377;27;45879;-66
2021/08/04 03:12:45;;;;;;;;;9.75;7.25;;;;;14.48;72.87;100993.00;5072648;27;45527;-62
2021/08/04 03:15:11;;;;;;;;;7.00;7.00;;;;;14.45;73.09;100998.66;5069241;27;45471;-69
2021/08/04 03:17:36;;;;;;;;;7.25;5.75;;;;;14.43;73.19;100997.16;5067935;27;45450;-63
2021/08/04 03:20:02;;;;;;;;;8.75;6.00;;;;;14.43;73.09;101002.50;5068317;27;45589;-63
2021/08/04 03:22:28;;;;;;;;;9.00;8.00;;;;;14.40;72.49;101006.31;5069780;28;45490;-63
2021/08/04 03:24:53;;;;;;;;;10.75;8.00;;;;;14.39;73.25;100996.66;5069862;27;45467;-66
2021/08/04 03:27:19;;;;;;;;;10.25;7.00;;;;;14.37;73.64;100999.50;5070603;27;45589;-66
2021/08/04 03:29:44;;;;;;;;;7.50;7.00;;;;;14.36;73.27;100989.03;5068986;27;45448;-62
2021/08/04 03:32:09;;;;;;;;;9.00;7.00;;;;;14.36;73.58;100994.34;5071548;28;45654;-68
2021/08/04 03:34:35;;;;;;;;;8.25;7.00;;;;;14.33;73.67;100982.22;5068462;27;45547;-63
2021/08/04 03:37:00;;;;;;;;;8.25;7.25;;;;;14.32;73.43;100985.88;5070113;28;45498;-62
2021/08/04 03:39:25;;;;;;;;;8.50;7.75;;;;;14.32;73.52;100977.09;5068615;28;45437;-62
2021/08/04 03:41:51;;;;;;;;;5.25;4.75;;;;;14.31;73.79;100983.38;5072609;27;45436;-62
2021/08/04 03:44:16;;;;;;;;;11.50;7.00;;;;;14.27;73.58;100982.03;5065885;27;45547;-67
2021/08/04 03:46:46;;;;;;;;;8.00;8.00;;;;;14.25;73.55;100986.72;5070416;27;45525;-63
2021/08/04 03:49:12;;;;;;;;;7.50;5.50;;;;;14.24;73.46;100979.72;5069064;27;45563;-64
2021/08/04 03:51:38;;;;;;;;;8.75;8.00;;;;;14.22;73.22;100982.56;5072037;27;45567;-62
2021/08/04 03:54:03;;;;;;;;;8.00;7.00;;;;;14.20;73.45;100981.91;5068505;27;45556;-63
2021/08/04 03:56:29;;;;;;;;;9.00;6.00;;;;;14.17;73.67;100984.91;5070390;27;45520;-68
2021/08/04 03:58:54;;;;;;;;;11.00;8.75;;;;;14.15;74.13;100990.38;5067766;27;45829;-62
2021/08/04 04:01:19;;;;;;;;;7.75;6.75;;;;;14.12;74.10;100988.06;5069362;27;45534;-68
2021/08/04 04:03:45;;;;;;;;;8.50;6.50;;;;;14.12;74.21;100979.22;5069392;28;45491;-67
2021/08/04 04:06:10;;;;;;;;;8.00;7.00;;;;;14.14;74.41;100985.22;5067046;27;48100;-68
2021/08/04 04:08:35;;;;;;;;;9.25;8.25;;;;;14.14;74.26;100991.38;5070288;27;45810;-65
2021/08/04 04:11:01;;;;;;;;;9.25;7.00;;;;;14.18;74.07;100990.03;5068103;27;45936;-63
2021/08/04 04:13:26;;;;;;;;;6.00;5.00;;;;;14.20;73.88;100995.19;5070086;27;45519;-66
2021/08/04 04:15:51;;;;;;;;;8.50;7.75;;;;;14.20;73.81;101000.50;5070135;27;45509;-62
2021/08/04 04:18:17;;;;;;;;;13.00;8.50;;;;;14.18;73.92;100990.03;5069332;27;45586;-66
2021/08/04 04:20:42;;;;;;;;;8.75;8.75;;;;;14.20;73.79;100989.88;5070920;27;45443;-66
2021/08/04 04:23:08;;;;;;;;;8.25;7.00;;;;;14.17;73.76;100996.34;5069812;27;45326;-63
2021/08/04 04:25:33;;;;;;;;;8.00;6.00;;;;;14.12;74.29;100981.88;5064980;27;45561;-63
2021/08/04 04:27:58;;;;;;;;;7.25;6.00;;;;;14.09;74.27;100987.53;5069889;27;45409;-68
2021/08/04 04:30:24;;;;;;;;;6.75;6.75;;;;;14.08;73.72;100983.22;5070189;27;45803;-66
2021/08/04 04:32:49;;;;;;;;;10.75;7.00;;;;;14.07;73.66;100978.91;5068258;27;45539;-66
2021/08/04 04:35:15;;;;;;;;;8.25;6.00;;;;;14.08;74.13;100980.56;5065468;27;48251;-67
2021/08/04 04:37:40;;;;;;;;;12.25;8.25;;;;;14.08;73.89;100970.78;5070682;28;45543;-68
2021/08/04 04:40:06;;;;;;;;;10.25;6.75;;;;;14.08;73.58;100972.59;5066100;28;45558;-63
2021/08/04 04:42:32;;;;;;;;;7.50;6.25;;;;;14.06;73.29;100977.25;5069462;27;45563;-62
2021/08/04 04:44:57;;;;;;;;;7.25;7.00;;;;;14.07;74.71;100979.75;5070907;27;45560;-62
2021/08/04 04:47:22;;;;;;;;;11.00;7.50;;;;;14.03;75.05;100977.59;5067761;27;45488;-62
2021/08/04 04:49:48;;;;;;;;;8.00;7.75;;;;;14.01;75.20;100971.59;5067194;27;45401;-62
2021/08/04 04:52:13;;;;;;;;;7.50;6.75;;;;;13.99;74.65;100979.72;5067993;28;45644;-68
2021/08/04 04:54:39;;;;;;;;;9.00;9.00;;;;;14.03;75.33;100977.59;5070272;28;45590;-66
2021/08/04 04:57:04;;;;;;;;;8.00;6.00;;;;;14.07;74.59;100978.91;5067241;27;45535;-63
2021/08/04 04:59:29;;;;;;;;;9.00;7.00;;;;;14.15;75.09;100976.25;5070452;27;45823;-62
2021/08/04 05:01:55;;;;;;;;;11.75;7.75;;;;;14.20;73.90;100979.25;5064943;27;45416;-63
2021/08/04 05:04:20;;;;;;;;;8.25;6.75;;;;;14.25;73.56;100984.88;5066858;27;45558;-62
2021/08/04 05:06:45;;;;;;;;;8.00;8.00;;;;;14.30;73.71;100979.91;5070963;27;45991;-63
2021/08/04 05:09:11;;;;;;;;;8.50;6.75;;;;;14.35;73.32;100982.88;5068891;27;45381;-66
2021/08/04 05:11:36;;;;;;;;;8.50;8.00;;;;;14.49;73.14;100993.81;5067517;27;45467;-63
2021/08/04 05:14:02;;;;;;;;;9.50;7.00;;;;;14.57;73.00;100989.38;5069550;27;45577;-63
2021/08/04 05:16:27;;;;;;;;;6.50;5.25;;;;;14.68;72.58;100998.00;5066923;27;45578;-67
2021/08/04 05:18:52;;;;;;;;;9.00;6.75;;;;;14.73;72.64;100995.66;5070279;28;45555;-66
2021/08/04 05:21:18;;;;;;;;;9.00;7.50;;;;;14.73;72.16;100998.31;5070558;27;45441;-67
2021/08/04 05:23:43;;;;;;;;;11.00;6.50;;;;;14.73;72.30;101000.97;5066621;27;45502;-63
2021/08/04 05:26:09;;;;;;;;;10.75;8.00;;;;;14.72;71.77;100999.31;5065541;27;45369;-66
2021/08/04 05:28:34;;;;;;;;;9.00;7.75;;;;;14.73;71.82;101001.78;5067553;27;45420;-67
2021/08/04 05:30:59;;;;;;;;;7.75;7.25;;;;;14.75;71.87;100999.78;5066961;27;45512;-66
2021/08/04 05:33:25;;;;;;;;;8.00;6.25;;;;;14.79;71.57;101006.44;5069814;28;46417;-64
2021/08/04 05:35:50;;;;;;;;;10.75;7.00;;;;;14.89;71.67;101008.09;5067499;27;45491;-68
2021/08/04 05:38:16;;;;;;;;;9.25;8.00;;;;;14.99;71.40;101000.75;5066892;27;45518;-66
2021/08/04 05:40:42;;;;;;;;;8.00;8.00;;;;;15.07;71.27;101003.34;5067803;27;45523;-63
2021/08/04 05:43:07;;;;;;;;;12.50;7.75;;;;;15.18;70.84;101007.47;5065972;27;45688;-62
2021/08/04 05:45:34;;;;;;;;;7.50;7.50;;;;;15.22;70.71;101004.28;5070273;27;45537;-68
2021/08/04 05:47:59;;;;;;;;;10.00;9.50;;;;;15.29;70.24;101007.09;5068507;27;45417;-63
2021/08/04 05:50:25;;;;;;;;;8.50;8.50;;;;;15.38;69.81;101006.06;5066386;27;45441;-67
2021/08/04 05:52:50;;;;;;;;;10.50;9.00;;;;;15.50;69.62;101003.81;5066029;27;45933;-63
2021/08/04 05:55:16;;;;;;;;;11.75;7.00;;;;;15.59;69.58;101012.59;5066855;27;45619;-63
2021/08/04 05:57:41;;;;;;;;;9.25;9.25;;;;;15.66;69.11;101006.41;5068624;28;45515;-62
2021/08/04 06:00:07;;;;;;;;;8.75;7.25;;;;;15.82;68.76;101002.00;5064171;27;45517;-68
2021/08/04 06:02:33;;;;;;;;;6.75;6.00;;;;;15.95;69.03;101006.72;5065175;27;46156;-65
2021/08/04 06:04:59;;;;;;;;;7.00;7.00;;;;;16.08;68.66;101004.31;5066629;27;45410;-65
2021/08/04 06:07:24;;;;;;;;;11.00;9.00;;;;;16.19;68.76;101005.72;5065109;28;45663;-69
2021/08/04 06:09:49;;;;;;;;;10.00;8.25;;;;;16.33;68.22;100996.94;5069181;28;45478;-69
2021/08/04 06:12:15;;;;;;;;;7.75;7.00;;;;;16.39;67.70;101004.19;5067029;27;46580;-64
2021/08/04 06:14:40;;;;;;;;;7.75;7.50;;;;;16.49;67.02;101004.78;5066404;27;45807;-63
2021/08/04 06:17:06;;;;;;;;;6.75;6.25;;;;;16.56;66.38;101003.03;5065432;27;45784;-62
2021/08/04 06:19:31;;;;;;;;;6.00;5.00;;;;;16.63;66.58;101010.31;5064188;27;45686;-69
2021/08/04 06:21:58;;;;;;;;;7.00;6.50;;;;;16.78;66.68;101008.53;5068220;27;45934;-68
2021/08/04 06:24:23;;;;;;;;;10.00;9.00;;;;;16.93;65.62;101017.34;5070363;27;45525;-68
2021/08/04 06:26:48;;;;;;;;;10.25;6.75;;;;;17.08;65.71;101004.00;5069299;27;46200;-69
2021/08/04 06:29:14;;;;;;;;;7.75;7.00;;;;;17.17;64.76;100999.41;5067775;27;45629;-62
2021/08/04 06:31:40;;;;;;;;;8.25;7.25;;;;;17.23;64.84;100995.97;5068805;27;45602;-69
2021/08/04 06:34:05;;;;;;;;;6.25;6.00;;;;;17.28;64.58;100992.75;5069475;27;45444;-64
2021/08/04 06:36:30;;;;;;;;;10.25;8.00;;;;;17.33;63.87;100990.34;5070750;28;45427;-68
2021/08/04 06:38:56;;;;;;;;;8.00;7.00;;;;;17.47;64.40;100991.34;5071473;27;45517;-67
2021/08/04 06:41:21;;;;;;;;;10.25;9.00;;;;;17.67;63.09;100995.03;5065935;27;45643;-63
2021/08/04 06:43:47;;;;;;;;;11.00;7.75;;;;;17.84;63.38;100992.97;5061350;27;45656;-68
2021/08/04 06:46:13;;;;;;;;;9.50;7.00;;;;;18.11;61.96;100999.41;5070971;27;45584;-69
2021/08/04 06:48:39;;;;;;;;;8.00;7.25;;;;;18.23;61.65;100995.19;5073157;27;45526;-67
2021/08/04 06:51:05;;;;;;;;;6.75;6.50;;;;;18.31;61.28;100996.91;5069023;27;46488;-67
2021/08/04 06:53:31;;;;;;;;;10.00;5.25;;;;;18.56;62.13;101002.63;5068327;27;45763;-68
2021/08/04 06:55:56;;;;;;;;;9.00;7.00;;;;;18.87;60.99;100996.06;5061865;27;45452;-64
2021/08/04 06:58:22;;;;;;;;;8.00;7.25;;;;;18.97;57.38;100996.53;5066137;27;45722;-62
2021/08/04 07:00:48;;;;;;;;;5.00;5.00;;;;;18.89;58.64;100991.31;5063328;27;45717;-67
2021/08/04 07:03:13;;;;;;;;;8.50;6.50;;;;;18.94;59.97;100991.59;5065380;27;45616;-67
2021/08/04 07:05:40;;;;;;;;;7.00;7.00;;;;;19.13;59.90;100996.19;5062373;27;45546;-62
2021/08/04 07:08:07;;;;;;;;;7.25;7.00;;;;;19.30;58.93;100996.69;5066951;27;45531;-67
2021/08/04 07:10:32;;;;;;;;;8.00;6.50;;;;;19.47;58.70;100993.66;5066284;27;46591;-62
2021/08/04 07:12:58;;;;;;;;;6.75;5.25;;;;;19.65;58.84;100996.56;5066348;27;45488;-68
2021/08/04 07:15:23;;;;;;;;;9.75;7.00;;;;;19.89;57.93;100991.72;5063090;27;45583;-68
2021/08/04 07:17:50;;;;;;;;;7.25;7.00;;;;;19.97;55.69;100989.63;5060684;27;45689;-62
2021/08/04 07:20:18;;;;;;;;;9.00;6.75;;;;;19.97;57.70;100986.97;5065799;27;45630;-67
2021/08/04 07:22:44;;;;;;;;;6.50;6.00;;;;;20.15;57.37;100998.94;5064529;27;45490;-68
2021/08/04 07:25:11;;;;;;;;;8.75;7.75;;;;;20.34;56.13;100992.75;5065449;27;45556;-67
2021/08/04 07:27:37;;;;;;;;;7.00;7.00;;;;;20.51;56.57;100995.00;5071380;28;45619;-63
2021/08/04 07:30:05;;;;;;;;;6.25;4.50;;;;;20.76;56.80;100992.53;5068353;27;46382;-66
2021/08/04 07:32:31;;;;;;;;;6.75;5.25;;;;;21.03;56.22;100985.22;5071781;27;45487;-64
2021/08/04 07:35:00;;;;;;;;;5.50;5.50;;;;;21.36;55.00;100995.00;5067121;28;45631;-68
2021/08/04 07:37:26;;;;;;;;;9.00;6.00;;;;;21.65;55.05;100986.38;5068795;27;45569;-72
2021/08/04 07:39:52;;;;;;;;;5.00;3.75;;;;;22.12;54.25;100986.88;5070189;27;45500;-68
2021/08/04 07:42:17;;;;;;;;;6.00;5.50;;;;;22.99;52.79;100979.84;5068168;28;45529;-66
2021/08/04 07:44:43;;;;;;;;;6.25;5.50;;;;;24.14;51.99;100979.69;5067151;27;45483;-65
2021/08/04 07:47:08;;;;;;;;;8.00;6.75;;;;;26.71;49.09;100975.41;5068554;27;45700;-64
2021/08/04 07:49:33;;;;;;;;;7.00;4.75;;;;;27.41;45.09;100975.69;5067263;27;46292;-65
2021/08/04 07:51:59;;;;;;;;;5.00;5.00;;;;;28.06;42.94;100980.09;5068430;27;45455;-68
2021/08/04 07:54:24;;;;;;;;;8.00;5.25;;;;;28.21;40.08;100975.84;5069557;27;45457;-73
2021/08/04 07:56:49;;;;;;;;;5.50;5.00;;;;;28.20;42.25;100980.47;5068381;27;45405;-65
2021/08/04 07:59:15;;;;;;;;;5.00;5.00;;;;;30.32;41.28;100978.16;5066805;27;45514;-67
2021/08/04 08:01:40;;;;;;;;;4.50;4.00;;;;;32.65;37.30;100978.84;5067403;27;45597;-70
2021/08/04 08:04:05;;;;;;;;;4.50;4.50;;;;;33.25;36.03;100980.28;5068938;27;46013;-68
2021/08/04 08:06:31;;;;;;;;;4.25;4.25;;;;;33.17;32.11;100981.78;5067742;28;45486;-70
2021/08/04 08:08:56;;;;;;;;;5.00;5.00;;;;;32.77;32.76;100990.19;5064814;27;45696;-66
2021/08/04 08:11:22;;;;;;;;;5.50;5.00;;;;;33.70;27.69;100986.19;5065332;28;45518;-69
2021/08/04 08:13:47;;;;;;;;;6.00;5.00;;;;;34.75;32.58;100992.00;5064450;27;45416;-67
2021/08/04 08:16:13;;;;;;;;;5.75;4.00;;;;;36.03;32.30;100994.59;5065312;27;45425;-65
2021/08/04 08:18:38;;;;;;;;;6.50;5.00;;;;;37.68;27.18;100987.91;5068263;27;46282;-72
2021/08/04 08:21:04;;;;;;;;;6.25;4.00;;;;;38.71;29.33;100991.50;5062331;27;47200;-68
2021/08/04 08:23:29;;;;;;;;;4.00;4.00;;;;;39.12;28.21;100985.22;5066197;27;45495;-70
2021/08/04 08:25:54;;;;;;;;;3.00;3.00;;;;;39.61;26.35;100986.63;5067157;27;45678;-65
2021/08/04 08:28:20;;;;;;;;;3.00;3.00;;;;;40.04;25.58;100988.97;5065241;27;45729;-68
2021/08/04 08:30:46;;;;;;;;;3.25;3.00;;;;;40.99;23.07;100988.84;5069810;28;45900;-67
2021/08/04 08:33:11;;;;;;;;;4.00;3.00;;;;;41.26;24.03;100992.84;5066487;27;45434;-70
2021/08/04 08:35:37;;;;;;;;;3.00;3.00;;;;;41.36;23.44;100986.00;5072405;27;45541;-67
2021/08/04 08:38:03;;;;;;;;;3.75;3.75;;;;;38.57;24.75;100986.19;5066126;27;45575;-70
2021/08/04 08:40:29;;;;;;;;;4.00;3.50;;;;;37.35;26.14;100983.69;5081627;27;45523;-66
2021/08/04 08:42:54;;;;;;;;;2.00;2.00;;;;;38.80;26.36;100983.13;5064440;27;45729;-71
2021/08/04 08:45:20;;;;;;;;;3.25;3.25;;;;;39.42;25.24;100985.19;5066581;28;45572;-65
2021/08/04 08:47:46;;;;;;;;;4.00;3.00;;;;;39.34;22.94;100977.72;5059319;27;45612;-69
2021/08/04 08:50:13;;;;;;;;;3.00;3.00;;;;;40.26;20.86;100979.44;5065342;27;45557;-69
2021/08/04 08:52:39;;;;;;;;;4.00;3.25;;;;;41.37;22.03;100976.50;5067031;27;45573;-66
2021/08/04 08:55:07;;;;;;;;;2.75;2.50;;;;;42.25;21.31;100976.50;5067184;27;45436;-72
2021/08/04 08:57:33;;;;;;;;;2.25;2.25;;;;;43.33;15.22;100977.78;5068375;27;46529;-70
2021/08/04 08:59:58;;;;;;;;;2.00;2.00;;;;;43.34;20.12;100984.94;5064298;27;45528;-67
2021/08/04 09:02:28;;;;;;;;;3.00;2.00;;;;;41.33;18.93;100992.25;5063370;27;45510;-67
2021/08/04 09:05:00;;;;;;;;;3.50;2.00;;;;;40.12;21.50;100982.50;5066210;27;45611;-66
2021/08/04 09:07:34;;;;;;;;;3.25;3.00;;;;;39.39;22.47;100974.78;5061799;27;45539;-67
2021/08/04 09:10:02;;;;;;;;;2.50;2.25;;;;;38.68;22.76;100976.41;5066334;27;45468;-70
2021/08/04 09:12:28;;;;;;;;;3.50;3.25;;;;;37.42;23.67;100973.00;5065133;28;45401;-72
2021/08/04 09:14:53;;;;;;;;;3.00;2.75;;;;;35.82;23.57;100983.31;5063765;27;45411;-69
2021/08/04 09:17:19;;;;;;;;;1.50;1.50;;;;;34.03;25.59;100989.78;5064492;27;46565;-66
2021/08/04 09:19:45;;;;;;;;;3.50;3.50;;;;;32.72;26.93;100987.53;5066251;27;45527;-70
2021/08/04 09:22:20;;;;;;;;;6.00;4.75;;;;;31.69;27.23;100995.03;5065286;27;45386;-66
2021/08/04 09:25:10;;;;;;;;;2.25;2.25;;;;;31.41;28.71;100994.66;5067563;28;45529;-70
2021/08/04 09:27:52;;;;;;;;;2.75;1.75;;;;;32.92;27.87;100977.44;5063177;27;46095;-65
2021/08/04 09:30:30;;;;;;;;;3.00;1.00;;;;;35.96;23.23;100972.22;5063325;27;45614;-70
2021/08/04 09:33:14;;;;;;;;;3.75;3.75;;;;;36.63;24.80;100973.22;5081899;27;45665;-67
2021/08/04 09:35:51;;;;;;;;;4.00;3.00;;;;;36.85;24.50;100967.59;5066100;27;45546;-68
2021/08/04 09:38:18;;;;;;;;;4.00;3.00;;;;;37.25;23.84;100972.19;5061766;27;47980;-70
2021/08/04 09:40:44;;;;;;;;;1.25;1.00;;;;;37.69;25.05;100965.53;5065356;27;45902;-66
2021/08/04 09:43:10;;;;;;;;;2.25;2.00;;;;;37.87;24.23;100960.78;5065274;28;45464;-65
2021/08/04 09:45:48;;;;;;;;;3.00;2.25;;;;;37.15;22.82;100962.31;5068557;28;45879;-72
2021/08/04 09:48:16;;;;;;;;;3.00;2.50;;;;;36.12;23.98;100961.66;5066186;27;45765;-73
2021/08/04 09:50:53;;;;;;;;;2.25;2.00;;;;;34.70;21.37;100969.38;5064424;28;45485;-69
2021/08/04 09:53:46;;;;;;;;;2.75;2.00;;;;;33.16;25.16;100953.59;5068780;27;45616;-72
2021/08/04 09:56:16;;;;;;;;;4.00;2.00;;;;;32.19;26.69;100956.63;5069095;27;45607;-69
2021/08/04 09:58:52;;;;;;;;;5.00;2.50;;;;;31.61;26.67;100957.41;5069633;27;46307;-69
2021/08/04 10:01:36;;;;;;;;;9.00;8.00;;;;;31.27;28.94;100952.69;5088490;27;45574;-68
2021/08/04 10:04:03;;;;;;;;;3.25;2.50;;;;;30.76;28.38;100953.75;5068223;28;45526;-69
2021/08/04 10:06:29;;;;;;;;;11.00;7.50;;;;;30.28;29.86;100947.09;5072193;27;45446;-73
2021/08/04 10:08:57;;;;;;;;;2.00;2.00;;;;;29.64;30.03;100957.41;5065025;27;48284;-65
2021/08/04 10:11:24;;;;;;;;;3.75;3.50;;;;;28.92;30.21;100950.97;5068828;27;45580;-70
2021/08/04 10:13:50;;;;;;;;;5.25;3.50;;;;;28.21;30.95;100954.13;5071190;27;45495;-67
2021/08/04 10:16:16;;;;;;;;;4.25;3.25;;;;;27.69;31.75;100943.91;5070989;27;47237;-74
2021/08/04 10:18:42;;;;;;;;;3.25;3.25;;;;;27.20;33.22;100948.34;5074316;27;45477;-73
2021/08/04 10:21:12;;;;;;;;;4.00;4.00;;;;;26.86;33.55;100944.94;5068720;27;45480;-73
2021/08/04 10:23:42;;;;;;;;;3.00;3.00;;;;;26.55;34.37;100932.88;5069303;27;45559;-69
2021/08/04 10:26:12;;;;;;;;;3.00;3.00;;;;;26.59;35.51;100942.97;5069768;27;45467;-70
2021/08/04 10:28:41;;;;;;;;;3.25;3.00;;;;;26.62;35.06;100935.41;5069098;27;45612;-72
2021/08/04 10:31:09;;;;;;;;;4.00;4.00;;;;;26.66;34.09;100940.09;5069077;27;46223;-68
2021/08/04 10:33:34;;;;;;;;;4.75;3.00;;;;;26.42;33.51;100930.53;5072136;27;45505;-69
2021/08/04 10:36:05;;;;;;;;;3.00;3.00;;;;;26.23;34.17;100938.91;5070445;27;45595;-68
2021/08/04 10:38:32;;;;;;;;;2.00;2.00;;;;;26.14;33.92;100927.69;5070413;27;45791;-67
2021/08/04 10:41:15;;;;;;;;;3.50;3.50;;;;;26.22;34.68;100926.44;5069714;27;45467;-65
2021/08/04 10:43:47;;;;;;;;;7.50;3.75;;;;;26.30;35.93;100926.00;5064503;27;46127;-65
2021/08/04 10:46:36;;;;;;;;;3.50;3.00;;;;;26.55;36.88;100928.28;5071117;27;45550;-68
2021/08/04 10:49:04;;;;;;;;;5.00;3.00;;;;;26.74;35.31;100936.94;5070060;27;45672;-71
2021/08/04 10:51:32;;;;;;;;;2.75;2.00;;;;;26.77;36.13;100933.72;5072854;27;45790;-66
2021/08/04 10:54:00;;;;;;;;;5.00;3.25;;;;;26.76;35.39;100937.50;5071583;27;45467;-71
2021/08/04 10:56:32;;;;;;;;;4.50;3.00;;;;;26.78;34.29;100935.38;5077033;27;45322;-66
2021/08/04 10:59:10;;;;;;;;;2.75;2.25;;;;;26.55;35.11;100932.88;5070367;27;45893;-65
2021/08/04 11:01:42;;;;;;;;;3.25;3.00;;;;;26.23;35.15;100930.78;5082539;27;45594;-65
2021/08/04 11:04:12;;;;;;;;;4.00;3.00;;;;;25.79;35.74;100938.75;5072985;27;45428;-65
2021/08/04 11:07:07;;;;;;;;;2.75;2.75;;;;;25.25;36.62;100927.53;5069182;27;45507;-64
2021/08/04 11:09:39;;;;;;;;;4.00;4.00;;;;;24.74;36.68;100937.31;5070021;28;46336;-63
2021/08/04 11:12:08;;;;;;;;;5.00;3.75;;;;;24.30;37.63;100931.44;5070157;27;45595;-67
2021/08/04 11:14:41;;;;;;;;;2.00;2.00;;;;;23.82;38.33;100933.31;5069141;27;45552;-68
2021/08/04 11:17:16;;;;;;;;;6.00;3.75;;;;;23.40;39.19;100936.00;5062771;27;45658;-68
2021/08/04 11:20:11;;;;;;;;;4.25;3.25;;;;;23.16;40.22;100935.06;5070442;27;46212;-65
2021/08/04 11:22:37;;;;;;;;;3.75;3.75;;;;;22.94;41.21;100940.91;5052698;27;45606;-68
2021/08/04 11:25:02;;;;;;;;;3.50;3.50;;;;;22.73;42.18;100944.88;5068121;28;45455;-64
2021/08/04 11:27:30;;;;;;;;;5.75;4.00;;;;;22.51;43.25;100941.81;5070206;28;45476;-67